createdAt,value
2022-12-19T00:00:02.958Z,71
2022-12-19T00:20:03.033Z,71
2022-12-19T00:40:03.633Z,71
2022-12-19T01:00:09.186Z,71
2022-12-19T01:20:02.997Z,71
2022-12-19T01:40:02.784Z,71
2022-12-19T02:00:03.482Z,71
2022-12-19T02:20:02.607Z,71
2022-12-19T02:40:03.279Z,71
2022-12-19T03:00:03.503Z,71
2022-12-19T03:20:02.747Z,71
2022-12-19T03:40:03.449Z,71
2022-12-19T04:00:03.411Z,70
2022-12-19T04:20:02.711Z,70
2022-12-19T04:40:03.423Z,70
2022-12-19T05:00:03.502Z,70
2022-12-19T05:20:02.674Z,70
2022-12-19T05:40:03.368Z,70
2022-12-19T06:00:03.088Z,70
2022-12-19T06:20:02.628Z,70
2022-12-19T06:40:03.411Z,70
2022-12-19T07:00:03.063Z,70
2022-12-19T07:20:03.107Z,70
2022-12-19T07:40:02.975Z,70
2022-12-19T08:00:03.505Z,70
2022-12-19T08:20:03.721Z,70
2022-12-19T08:40:02.937Z,70
2022-12-19T09:00:05.687Z,70
2022-12-19T09:20:03.254Z,69
2022-12-19T09:40:03.074Z,69
2022-12-19T10:00:03.442Z,68
2022-12-19T10:20:03.220Z,68
2022-12-19T10:40:02.930Z,67
2022-12-19T11:00:03.025Z,66
2022-12-19T11:40:02.841Z,65
2022-12-19T12:00:06.081Z,65
2022-12-19T12:35:26.416Z,66
2022-12-19T12:40:02.883Z,68
2022-12-19T13:00:03.341Z,70
2022-12-19T13:20:03.365Z,72
2022-12-19T13:40:18.657Z,73
2022-12-19T14:00:03.865Z,74
2022-12-19T14:22:14.601Z,75
2022-12-19T14:40:02.817Z,75
2022-12-19T15:00:34.166Z,76
2022-12-19T15:20:02.524Z,76
2022-12-19T15:40:02.923Z,76
2022-12-19T16:00:02.763Z,77
2022-12-19T16:20:03.030Z,77
2022-12-19T16:40:02.602Z,77
2022-12-19T17:00:03.578Z,77
2022-12-19T17:20:03.280Z,78
2022-12-19T17:40:02.859Z,78
2022-12-19T18:00:03.923Z,78
2022-12-19T18:20:02.962Z,78
2022-12-19T18:40:02.407Z,78
2022-12-19T19:00:03.052Z,79
2022-12-19T19:20:03.066Z,79
2022-12-19T19:40:02.848Z,79
2022-12-19T20:00:03.455Z,79
2022-12-19T20:20:03.393Z,79
2022-12-19T20:40:02.767Z,79
2022-12-19T21:00:03.336Z,79
2022-12-19T21:20:02.472Z,79
2022-12-19T21:40:03.078Z,79
2022-12-19T22:00:03.109Z,79
2022-12-19T22:20:02.619Z,79
2022-12-19T22:40:03.264Z,79
2022-12-19T23:00:02.910Z,79
2022-12-19T23:20:03.096Z,79
2022-12-19T23:40:02.844Z,79
